Time;durP1;ratioP1;P1;durP2;ratioP2;P2;SDS_P1;SDS_P2;PMS_P1;PMS_P2;Temp;Humidity;BMP_temperature;BMP_pressure;BME280_temperature;BME280_humidity;BME280_pressure;Samples;Min_cycle;Max_cycle;Signal;HPM_P1;HPM_P2
2023/05/21 00:01:02;;;;;;;15.23;7.05;;;13.00;99.90;;;;;;4996104;28;20178;-82
2023/05/21 00:03:29;;;;;;;19.83;7.55;;;13.00;99.90;;;;;;4997335;28;20178;-83
2023/05/21 00:05:55;;;;;;;20.98;8.13;;;13.00;99.90;;;;;;4997302;28;20206;-83
2023/05/21 00:08:21;;;;;;;24.50;8.00;;;12.90;99.90;;;;;;4997313;28;20236;-83
2023/05/21 00:10:47;;;;;;;17.80;6.18;;;12.90;99.90;;;;;;4996891;28;20209;-83
2023/05/21 00:13:13;;;;;;;13.85;4.85;;;12.90;99.90;;;;;;5028484;28;20190;-83
2023/05/21 00:15:39;;;;;;;6.15;3.50;;;12.90;99.90;;;;;;5028580;28;20182;-83
2023/05/21 00:18:05;;;;;;;8.00;2.80;;;12.90;99.90;;;;;;5028688;28;20193;-82
2023/05/21 00:20:31;;;;;;;4.72;2.78;;;12.90;99.90;;;;;;5029053;28;20188;-82
2023/05/21 00:22:58;;;;;;;3.55;2.30;;;12.90;99.90;;;;;;4997426;28;20252;-83
2023/05/21 00:25:23;;;;;;;6.22;2.63;;;12.90;99.90;;;;;;5029633;28;20244;-83
2023/05/21 00:27:49;;;;;;;9.45;2.65;;;;;;;;;;4998371;28;20186;-83
2023/05/21 00:30:15;;;;;;;3.63;2.60;;;12.90;99.90;;;;;;4996984;28;20701;-84
2023/05/21 00:32:41;;;;;;;3.63;2.33;;;;;;;;;;5028215;28;20189;-84
2023/05/21 00:35:07;;;;;;;4.65;2.30;;;12.80;99.90;;;;;;4997272;28;20195;-84
2023/05/21 00:37:33;;;;;;;4.63;2.60;;;12.80;99.90;;;;;;4996926;28;20758;-84
2023/05/21 00:40:05;;;;;;;5.28;2.65;;;12.80;99.90;;;;;;4996781;28;20261;-84
2023/05/21 00:42:31;;;;;;;5.57;2.47;;;12.80;99.90;;;;;;4996626;28;20174;-84
2023/05/21 00:44:57;;;;;;;7.20;3.05;;;12.70;99.90;;;;;;4994569;28;20717;-84
2023/05/21 00:47:23;;;;;;;4.78;2.75;;;12.70;99.90;;;;;;5011624;28;20205;-84
2023/05/21 00:49:51;;;;;;;5.88;3.03;;;12.70;99.90;;;;;;4996243;28;20663;-84
2023/05/21 00:52:21;;;;;;;5.80;2.85;;;12.70;99.90;;;;;;5027356;28;20185;-84
2023/05/21 00:54:49;;;;;;;4.18;2.00;;;12.70;99.90;;;;;;5027850;28;20178;-84
2023/05/21 00:57:19;;;;;;;4.20;2.75;;;12.70;99.90;;;;;;4994822;28;20634;-84
2023/05/21 00:59:46;;;;;;;8.77;2.58;;;12.60;99.90;;;;;;5026912;28;20182;-84
2023/05/21 01:02:13;;;;;;;9.05;2.83;;;12.60;99.90;;;;;;5011138;28;20184;-84
2023/05/21 01:04:38;;;;;;;4.38;2.90;;;12.60;99.90;;;;;;5027613;28;20184;-84
2023/05/21 01:07:05;;;;;;;12.93;2.67;;;;;;;;;;4996041;28;20555;-84
2023/05/21 01:09:31;;;;;;;3.25;2.78;;;12.50;99.90;;;;;;4995796;28;20264;-84
2023/05/21 01:11:59;;;;;;;4.22;2.95;;;12.50;99.90;;;;;;5011280;28;20190;-83
2023/05/21 01:14:25;;;;;;;3.13;2.45;;;12.40;99.90;;;;;;5010372;28;20184;-83
2023/05/21 01:16:52;;;;;;;7.18;2.92;;;12.50;99.90;;;;;;5027142;28;20185;-83
2023/05/21 01:19:20;;;;;;;12.77;2.60;;;12.40;99.90;;;;;;5027098;28;20647;-84
2023/05/21 01:21:49;;;;;;;3.60;2.42;;;12.40;99.90;;;;;;4995773;28;20206;-83
2023/05/21 01:24:15;;;;;;;3.70;2.75;;;12.50;99.90;;;;;;4995666;28;20174;-85
2023/05/21 01:26:42;;;;;;;4.70;2.75;;;12.20;99.90;;;;;;5010922;28;20193;-84
2023/05/21 01:29:11;;;;;;;4.50;2.97;;;12.20;99.90;;;;;;4995638;28;20174;-84
2023/05/21 01:32:11;;;;;;;6.03;3.38;;;12.20;99.90;;;;;;4995542;28;20174;-84
2023/05/21 01:35:08;;;;;;;6.90;2.90;;;12.10;99.90;;;;;;4995268;28;20178;-84
2023/05/21 01:37:36;;;;;;;6.25;2.70;;;12.10;99.90;;;;;;4995187;28;20647;-83
2023/05/21 01:40:10;;;;;;;4.88;2.90;;;12.00;99.90;;;;;;4995223;28;20256;-84
2023/05/21 01:42:39;;;;;;;4.00;2.65;;;12.00;99.90;;;;;;4994887;28;20170;-83
2023/05/21 01:45:07;;;;;;;5.35;2.95;;;12.00;99.90;;;;;;5026573;28;20363;-84
2023/05/21 01:47:35;;;;;;;4.78;2.92;;;12.00;99.90;;;;;;4994874;28;20654;-84
2023/05/21 01:50:02;;;;;;;5.15;3.00;;;11.90;99.90;;;;;;4994857;28;20206;-83
2023/05/21 01:52:28;;;;;;;10.65;3.05;;;11.90;99.90;;;;;;5026308;28;20265;-84
2023/05/21 01:54:59;;;;;;;4.20;2.90;;;11.90;99.90;;;;;;4994822;28;20220;-85
2023/05/21 01:57:24;;;;;;;11.25;2.95;;;11.80;99.90;;;;;;5026866;28;20182;-83
2023/05/21 01:59:52;;;;;;;7.53;3.20;;;11.80;99.90;;;;;;5026700;28;20231;-83
2023/05/21 02:02:18;;;;;;;3.90;2.35;;;11.80;99.90;;;;;;5026348;28;20185;-83
2023/05/21 02:04:45;;;;;;;6.40;3.42;;;11.70;99.90;;;;;;4994910;28;20181;-84
2023/05/21 02:07:13;;;;;;;10.30;3.38;;;11.60;99.90;;;;;;5010021;28;20747;-83
2023/05/21 02:09:39;;;;;;;9.35;3.65;;;11.60;99.90;;;;;;5025726;28;20209;-83
2023/05/21 02:12:05;;;;;;;7.78;3.42;;;11.60;99.90;;;;;;4994959;28;20174;-84
2023/05/21 02:14:32;;;;;;;4.95;2.72;;;11.60;99.90;;;;;;4994355;28;20232;-83
2023/05/21 02:16:59;;;;;;;6.03;3.47;;;11.50;99.90;;;;;;4993628;28;20205;-83
2023/05/21 02:19:25;;;;;;;7.78;3.17;;;11.40;99.90;;;;;;5009624;28;20185;-83
2023/05/21 02:21:51;;;;;;;5.57;3.10;;;11.40;99.90;;;;;;5009891;28;20182;-83
2023/05/21 02:24:17;;;;;;;4.57;3.03;;;11.30;99.90;;;;;;5026180;28;20690;-83
2023/05/21 02:26:43;;;;;;;5.75;2.90;;;11.30;99.90;;;;;;5026087;28;20272;-84
2023/05/21 02:29:08;;;;;;;4.03;2.50;;;11.30;99.90;;;;;;5026171;28;20284;-83
2023/05/21 02:31:34;;;;;;;6.45;3.72;;;11.30;99.90;;;;;;4994884;28;20678;-84
2023/05/21 02:34:00;;;;;;;5.35;2.85;;;11.30;99.90;;;;;;4994816;28;20182;-84
2023/05/21 02:36:27;;;;;;;3.05;2.75;;;11.20;99.90;;;;;;4994703;28;20244;-84
2023/05/21 02:38:53;;;;;;;5.35;3.10;;;11.20;99.90;;;;;;5025789;28;20178;-84
2023/05/21 02:41:20;;;;;;;4.07;2.88;;;11.20;99.90;;;;;;5009474;28;20182;-84
2023/05/21 02:43:46;;;;;;;5.50;2.95;;;11.20;99.90;;;;;;4994082;28;20320;-84
2023/05/21 02:46:11;;;;;;;5.80;3.38;;;11.20;99.90;;;;;;5025874;28;20391;-84
2023/05/21 02:48:38;;;;;;;3.85;2.50;;;11.10;99.90;;;;;;4994192;28;20252;-84
2023/05/21 02:51:04;;;;;;;4.65;2.53;;;11.10;99.90;;;;;;5009122;28;20205;-84
2023/05/21 02:53:29;;;;;;;5.63;3.88;;;11.10;99.90;;;;;;5025806;28;20193;-84
2023/05/21 02:55:55;;;;;;;4.68;2.65;;;11.10;99.90;;;;;;5009387;28;20186;-84
2023/05/21 02:58:24;;;;;;;6.65;2.83;;;11.10;99.90;;;;;;5025984;28;20590;-84
2023/05/21 03:00:52;;;;;;;4.60;2.80;;;11.10;99.90;;;;;;5025201;28;20236;-84
2023/05/21 03:03:17;;;;;;;5.85;3.35;;;11.10;99.90;;;;;;4993375;28;20621;-84
2023/05/21 03:05:44;;;;;;;4.60;2.72;;;11.20;99.90;;;;;;5009409;28;20198;-85
2023/05/21 03:08:10;;;;;;;5.78;2.65;;;11.10;99.90;;;;;;4994197;28;20218;-84
2023/05/21 03:10:36;;;;;;;9.30;2.92;;;11.10;99.90;;;;;;5025522;28;20210;-83
2023/05/21 03:13:03;;;;;;;3.17;2.42;;;11.20;99.90;;;;;;5025571;28;20678;-84
2023/05/21 03:15:32;;;;;;;6.45;2.50;;;11.20;99.90;;;;;;4994094;28;20174;-85
2023/05/21 03:17:58;;;;;;;6.97;2.38;;;11.20;99.90;;;;;;4994071;28;20182;-83
2023/05/21 03:20:23;;;;;;;6.15;2.53;;;11.20;99.90;;;;;;5008742;28;20248;-83
2023/05/21 03:22:49;;;;;;;3.95;2.50;;;11.20;99.90;;;;;;5025366;28;20614;-83
2023/05/21 03:25:15;;;;;;;5.20;3.00;;;11.20;99.90;;;;;;5025323;28;20596;-83
2023/05/21 03:27:40;;;;;;;4.18;2.47;;;11.30;99.90;;;;;;5025304;28;20271;-84
2023/05/21 03:30:07;;;;;;;2.88;2.25;;;11.30;99.90;;;;;;5008877;28;20202;-83
2023/05/21 03:32:32;;;;;;;6.13;3.00;;;11.30;99.90;;;;;;4993795;28;20262;-83
2023/05/21 03:34:58;;;;;;;5.43;2.60;;;11.40;99.90;;;;;;5008969;28;20598;-84
2023/05/21 03:37:24;;;;;;;4.07;3.05;;;11.50;99.90;;;;;;4993762;28;20197;-84
2023/05/21 03:39:50;;;;;;;3.95;2.78;;;11.50;99.90;;;;;;5025560;28;20269;-84
2023/05/21 03:42:16;;;;;;;4.00;2.47;;;11.50;99.90;;;;;;4992534;28;20190;-84
2023/05/21 03:44:41;;;;;;;3.60;2.70;;;11.60;99.90;;;;;;4993684;28;20292;-84
2023/05/21 03:47:07;;;;;;;3.35;2.42;;;;;;;;;;4992446;28;20190;-83
2023/05/21 03:49:33;;;;;;;8.63;2.38;;;;;;;;;;5008654;28;20308;-85
2023/05/21 03:51:59;;;;;;;3.33;2.35;;;11.80;99.90;;;;;;5025273;28;20197;-84
2023/05/21 03:54:25;;;;;;;4.00;2.38;;;11.90;99.90;;;;;;5025258;28;20182;-84
2023/05/21 03:56:50;;;;;;;4.85;2.78;;;11.90;99.90;;;;;;4992353;28;20178;-85
2023/05/21 03:59:16;;;;;;;3.42;2.40;;;;;;;;;;5025270;28;20205;-84
2023/05/21 04:01:42;;;;;;;3.35;2.72;;;12.10;99.90;;;;;;5024958;28;20227;-85
2023/05/21 04:04:08;;;;;;;5.80;2.65;;;12.20;99.90;;;;;;4994338;28;20178;-83
2023/05/21 04:06:33;;;;;;;7.00;3.00;;;11.50;99.90;;;;;;4996753;28;20186;-83
2023/05/21 04:08:59;;;;;;;3.58;2.67;;;12.30;99.90;;;;;;4997643;28;20293;-83
2023/05/21 04:11:25;;;;;;;6.93;2.63;;;12.40;99.90;;;;;;4998403;28;20202;-83
2023/05/21 04:13:51;;;;;;;3.10;2.17;;;12.50;99.90;;;;;;5018689;28;20563;-83
2023/05/21 04:16:17;;;;;;;5.68;2.47;;;12.60;99.90;;;;;;5010476;28;20180;-83
2023/05/21 04:18:44;;;;;;;3.63;2.38;;;12.80;99.90;;;;;;5043284;28;20190;-83
2023/05/21 04:21:10;;;;;;;3.90;2.22;;;12.90;99.90;;;;;;5007665;28;20177;-83
2023/05/21 04:23:35;;;;;;;2.58;2.20;;;12.90;99.90;;;;;;5004912;28;20186;-83
2023/05/21 04:26:01;;;;;;;3.55;2.40;;;13.00;99.90;;;;;;4998945;28;20178;-83
2023/05/21 04:28:27;;;;;;;4.22;2.10;;;;;;;;;;5029895;28;20619;-83
2023/05/21 04:30:55;;;;;;;4.72;2.08;;;13.20;99.90;;;;;;5028185;28;20205;-83
2023/05/21 04:33:24;;;;;;;4.38;2.15;;;13.30;99.90;;;;;;5027959;28;20178;-83
2023/05/21 04:35:50;;;;;;;3.60;1.90;;;13.40;99.90;;;;;;4995206;28;20539;-83
2023/05/21 04:38:19;;;;;;;4.43;2.70;;;13.40;99.90;;;;;;4995270;28;20627;-83
2023/05/21 04:40:52;;;;;;;2.47;2.05;;;13.60;99.90;;;;;;4995167;28;20581;-84
2023/05/21 04:43:24;;;;;;;3.58;2.05;;;13.70;99.90;;;;;;4995209;28;20178;-84
2023/05/21 04:45:51;;;;;;;2.83;2.08;;;13.80;99.90;;;;;;4996494;28;20190;-84
2023/05/21 04:48:17;;;;;;;2.70;1.90;;;13.90;99.90;;;;;;5011617;28;20249;-84
2023/05/21 04:50:43;;;;;;;3.15;2.17;;;14.00;99.90;;;;;;5027821;28;20678;-84
2023/05/21 04:53:10;;;;;;;2.47;1.90;;;;;;;;;;4996515;28;20185;-84
2023/05/21 04:55:38;;;;;;;3.28;1.95;;;13.90;99.90;;;;;;5028013;28;20189;-84
2023/05/21 04:58:05;;;;;;;4.78;2.42;;;14.30;99.90;;;;;;5010817;28;20612;-84
2023/05/21 05:00:32;;;;;;;2.40;2.00;;;14.30;99.90;;;;;;4996315;28;20200;-84
2023/05/21 05:02:58;;;;;;;3.47;2.38;;;14.40;99.90;;;;;;5010936;28;20186;-84
2023/05/21 05:05:24;;;;;;;3.92;2.20;;;14.50;99.90;;;;;;4996174;28;20725;-84
2023/05/21 05:07:50;;;;;;;3.22;2.00;;;14.50;99.90;;;;;;4994671;28;20737;-84
2023/05/21 05:10:16;;;;;;;2.35;2.05;;;14.60;99.90;;;;;;4994902;28;20214;-84
2023/05/21 05:12:41;;;;;;;4.93;2.40;;;14.70;99.90;;;;;;4995919;28;20545;-84
2023/05/21 05:15:08;;;;;;;7.65;2.20;;;14.80;99.90;;;;;;5027243;28;20221;-84
2023/05/21 05:17:34;;;;;;;2.25;2.00;;;14.90;99.90;;;;;;5010408;28;20182;-85
2023/05/21 05:20:00;;;;;;;2.65;1.85;;;15.00;99.90;;;;;;4994504;28;20260;-85
2023/05/21 05:22:26;;;;;;;3.20;2.13;;;15.10;99.90;;;;;;4995756;28;20174;-84
2023/05/21 05:24:52;;;;;;;2.28;1.70;;;;;;;;;;5010678;28;20189;-85
2023/05/21 05:27:17;;;;;;;2.78;1.92;;;15.20;99.90;;;;;;5027333;28;20178;-84
2023/05/21 05:29:46;;;;;;;6.20;3.17;;;15.30;99.90;;;;;;5027155;28;20675;-83
2023/05/21 05:32:12;;;;;;;2.80;2.15;;;15.40;99.90;;;;;;4994289;28;20182;-85
2023/05/21 05:34:38;;;;;;;4.43;2.35;;;15.50;99.90;;;;;;5009575;28;20182;-83
2023/05/21 05:37:04;;;;;;;5.78;2.45;;;15.60;99.90;;;;;;4994642;28;20354;-83
2023/05/21 05:39:29;;;;;;;4.00;2.50;;;15.70;99.90;;;;;;4994381;28;20186;-85
2023/05/21 05:41:55;;;;;;;2.28;1.85;;;15.70;99.90;;;;;;5025989;28;20220;-85
2023/05/21 05:44:21;;;;;;;2.47;2.08;;;15.80;99.90;;;;;;4993864;28;20233;-83
2023/05/21 05:46:47;;;;;;;4.57;2.10;;;;;;;;;;4995019;28;20182;-84
2023/05/21 05:49:12;;;;;;;2.55;2.00;;;15.90;99.90;;;;;;5025810;28;20186;-84
2023/05/21 05:51:39;;;;;;;4.55;2.20;;;16.00;99.90;;;;;;4994608;28;20182;-82
2023/05/21 05:54:04;;;;;;;7.45;2.13;;;16.10;99.90;;;;;;4995163;28;20552;-84
2023/05/21 05:56:30;;;;;;;2.72;1.90;;;16.20;99.90;;;;;;5009840;28;20178;-84
2023/05/21 05:58:57;;;;;;;3.58;1.92;;;16.20;99.90;;;;;;5009513;28;20182;-83
2023/05/21 06:01:23;;;;;;;2.72;1.95;;;16.40;99.90;;;;;;4994616;28;20201;-84
2023/05/21 06:03:49;;;;;;;2.58;1.92;;;16.50;99.90;;;;;;4993399;28;20177;-83
2023/05/21 06:06:15;;;;;;;4.30;2.30;;;16.60;99.90;;;;;;5026313;28;20174;-81
2023/05/21 06:08:41;;;;;;;4.53;1.55;;;16.70;99.90;;;;;;5025839;28;20182;-82
2023/05/21 06:11:08;;;;;;;3.00;1.92;;;16.80;99.90;;;;;;4994167;28;20713;-83
2023/05/21 06:13:34;;;;;;;3.65;2.10;;;16.80;99.90;;;;;;4994460;28;20278;-82
2023/05/21 06:16:00;;;;;;;2.08;1.80;;;16.90;99.90;;;;;;5025472;28;20611;-82
2023/05/21 06:18:25;;;;;;;2.40;1.73;;;17.00;99.90;;;;;;5009156;28;20282;-83
2023/05/21 06:20:51;;;;;;;4.13;1.83;;;17.10;99.90;;;;;;4994355;28;20218;-83
2023/05/21 06:23:17;;;;;;;2.17;1.70;;;17.40;99.90;;;;;;4993102;28;20619;-83
2023/05/21 06:25:43;;;;;;;4.28;1.70;;;17.30;99.90;;;;;;5025453;28;20178;-82
2023/05/21 06:28:08;;;;;;;3.97;2.13;;;17.40;99.90;;;;;;5008700;28;20186;-81
2023/05/21 06:30:34;;;;;;;4.18;3.15;;;17.50;99.90;;;;;;5008541;28;20212;-83
2023/05/21 06:33:00;;;;;;;6.55;3.22;;;17.50;99.90;;;;;;4993747;28;20222;-82
2023/05/21 06:35:25;;;;;;;3.13;2.28;;;17.60;99.90;;;;;;4993750;28;20264;-82
2023/05/21 06:37:51;;;;;;;3.08;2.00;;;17.70;99.90;;;;;;5008665;28;20184;-83
2023/05/21 06:40:17;;;;;;;2.33;1.73;;;17.80;99.90;;;;;;4992149;28;20182;-85
2023/05/21 06:42:42;;;;;;;2.03;1.83;;;17.90;99.90;;;;;;5008530;28;20189;-84
2023/05/21 06:45:08;;;;;;;4.88;1.95;;;17.90;99.90;;;;;;5024658;28;20233;-84
2023/05/21 06:47:34;;;;;;;2.80;1.92;;;;;;;;;;5008076;28;20248;-84
2023/05/21 06:50:00;;;;;;;2.88;1.95;;;18.00;99.90;;;;;;4993078;28;20209;-84
2023/05/21 06:52:26;;;;;;;3.90;1.92;;;18.00;99.90;;;;;;5008066;28;20196;-84
2023/05/21 06:54:52;;;;;;;3.75;2.10;;;18.20;99.90;;;;;;5007773;28;20407;-81
2023/05/21 06:57:18;;;;;;;8.30;2.17;;;18.20;99.90;;;;;;4992968;28;20205;-83
2023/05/21 06:59:43;;;;;;;4.82;1.98;;;18.30;99.90;;;;;;4993276;28;20185;-84
2023/05/21 07:02:09;;;;;;;3.00;1.83;;;18.50;99.90;;;;;;4992022;28;20657;-84
2023/05/21 07:04:35;;;;;;;5.88;2.47;;;18.60;99.90;;;;;;5008389;28;20188;-85
2023/05/21 07:07:03;;;;;;;4.28;1.92;;;;;;;;;;5024523;28;20268;-86
2023/05/21 07:09:29;;;;;;;8.18;2.22;;;18.70;99.90;;;;;;5025850;28;20249;-82
2023/05/21 07:11:55;;;;;;;6.90;2.20;;;18.90;99.90;;;;;;4992099;28;20220;-84
2023/05/21 07:14:20;;;;;;;4.07;1.35;;;18.90;99.90;;;;;;5024925;28;20261;-83
2023/05/21 07:16:46;;;;;;;2.78;1.50;;;18.90;99.20;;;;;;5024648;28;20190;-83
2023/05/21 07:19:11;;;;;;;1.90;1.60;;;19.00;98.10;;;;;;5024354;28;20185;-83
2023/05/21 07:21:37;;;;;;;4.80;1.88;;;19.00;98.50;;;;;;4992955;28;20549;-83
2023/05/21 07:24:03;;;;;;;3.65;1.30;;;19.10;98.20;;;;;;5024512;28;20209;-82
2023/05/21 07:26:28;;;;;;;1.92;1.60;;;19.20;97.10;;;;;;4993215;28;20321;-82
2023/05/21 07:28:54;;;;;;;2.70;1.60;;;19.20;95.90;;;;;;5024620;28;20193;-83
2023/05/21 07:31:20;;;;;;;4.07;1.73;;;19.30;96.70;;;;;;5024517;28;20667;-88
2023/05/21 07:33:45;;;;;;;5.72;2.20;;;19.40;96.30;;;;;;5024255;28;20252;-83
2023/05/21 07:36:11;;;;;;;1.65;1.45;;;19.50;96.30;;;;;;4992660;28;20186;-84
2023/05/21 07:38:38;;;;;;;1.50;1.40;;;19.50;96.10;;;;;;5024638;28;20184;-83
2023/05/21 07:41:04;;;;;;;1.63;1.52;;;19.60;94.80;;;;;;4996564;28;20190;-82
2023/05/21 07:43:30;;;;;;;1.85;1.67;;;19.70;96.00;;;;;;5028791;28;20596;-83
2023/05/21 07:45:56;;;;;;;3.17;1.60;;;19.70;95.00;;;;;;5028280;28;20202;-83
2023/05/21 07:48:22;;;;;;;1.48;1.30;;;19.80;93.00;;;;;;5028213;28;20205;-84
2023/05/21 07:50:48;;;;;;;4.00;2.53;;;;;;;;;;5028113;28;20217;-83
2023/05/21 07:53:15;;;;;;;2.72;1.50;;;19.90;92.70;;;;;;5028019;28;20200;-83
2023/05/21 07:55:46;;;;;;;2.28;1.60;;;20.00;92.40;;;;;;4996713;28;20189;-84
2023/05/21 07:58:17;;;;;;;3.85;1.30;;;20.10;93.60;;;;;;5026695;28;20186;-83
2023/05/21 08:00:45;;;;;;;4.53;1.42;;;20.20;91.30;;;;;;4995880;28;20627;-83
2023/05/21 08:03:12;;;;;;;4.45;1.83;;;20.30;91.90;;;;;;5028343;28;20714;-83
2023/05/21 08:05:38;;;;;;;2.58;1.50;;;20.30;90.90;;;;;;5039181;28;20194;-82
2023/05/21 08:08:04;;;;;;;4.28;1.30;;;20.40;90.60;;;;;;5022467;28;20194;-81
2023/05/21 08:10:30;;;;;;;3.70;1.55;;;20.40;90.80;;;;;;5033512;28;20214;-81
2023/05/21 08:12:56;;;;;;;4.50;1.38;;;20.50;90.70;;;;;;5002385;28;20281;-83
2023/05/21 08:15:22;;;;;;;2.08;1.52;;;20.60;89.90;;;;;;4995404;28;20730;-85
2023/05/21 08:17:47;;;;;;;1.75;1.27;;;20.70;88.90;;;;;;4998903;28;20202;-83
2023/05/21 08:20:14;;;;;;;3.92;1.40;;;20.70;87.30;;;;;;5020933;28;20493;-84
2023/05/21 08:22:40;;;;;;;1.30;1.20;;;20.70;86.60;;;;;;5032609;28;20185;-83
2023/05/21 08:25:07;;;;;;;2.50;1.40;;;20.90;86.10;;;;;;5000799;28;20178;-84
2023/05/21 08:27:32;;;;;;;2.67;1.50;;;21.00;85.50;;;;;;4996758;28;20182;-84
2023/05/21 08:29:58;;;;;;;2.92;1.33;;;21.00;85.80;;;;;;5027714;28;20220;-83
2023/05/21 08:32:24;;;;;;;1.98;1.40;;;21.10;82.60;;;;;;5028037;28;20186;-83
2023/05/21 08:34:51;;;;;;;5.13;2.50;;;21.10;83.50;;;;;;5028524;28;20705;-82
2023/05/21 08:37:17;;;;;;;1.73;1.42;;;21.10;83.40;;;;;;4996918;28;20235;-83
2023/05/21 08:39:43;;;;;;;1.52;1.20;;;21.20;81.60;;;;;;5027969;28;20598;-84
2023/05/21 08:42:23;;;;;;;1.67;1.38;;;21.20;81.00;;;;;;5011082;28;20569;-86
2023/05/21 08:44:51;;;;;;;1.52;1.10;;;21.30;77.70;;;;;;4994279;28;20240;-84
2023/05/21 08:47:22;;;;;;;1.77;1.58;;;21.40;79.70;;;;;;5027493;28;20173;-85
2023/05/21 08:49:50;;;;;;;2.70;1.73;;;21.40;80.30;;;;;;4996182;28;20284;-83
2023/05/21 08:52:16;;;;;;;1.10;1.00;;;21.50;80.80;;;;;;5026955;28;20182;-85
2023/05/21 08:54:44;;;;;;;4.53;1.50;;;21.60;76.70;;;;;;4995727;28;20188;-84
2023/05/21 08:57:10;;;;;;;4.03;1.42;;;21.60;77.90;;;;;;5010791;28;20190;-85
2023/05/21 08:59:38;;;;;;;2.45;1.60;;;21.70;77.50;;;;;;5027262;28;20535;-81
2023/05/21 09:02:04;;;;;;;1.65;1.45;;;21.70;76.60;;;;;;4996217;28;20185;-83
2023/05/21 09:04:31;;;;;;;1.92;1.30;;;21.90;79.10;;;;;;5027079;28;20550;-86
2023/05/21 09:06:58;;;;;;;4.15;2.00;;;21.90;75.90;;;;;;5027244;28;20174;-84
2023/05/21 09:09:31;;;;;;;3.25;1.10;;;22.00;79.10;;;;;;4995620;28;20178;-84
2023/05/21 09:11:57;;;;;;;1.63;1.30;;;22.00;74.40;;;;;;4995832;28;20170;-85
2023/05/21 09:14:23;;;;;;;2.65;1.50;;;22.10;75.50;;;;;;5027665;28;20189;-83
2023/05/21 09:16:49;;;;;;;1.90;1.35;;;22.10;73.30;;;;;;5009879;28;20209;-81
2023/05/21 09:19:14;;;;;;;3.83;1.52;;;22.30;71.90;;;;;;4994888;28;20221;-81
2023/05/21 09:21:40;;;;;;;3.17;1.33;;;22.30;71.80;;;;;;5026562;28;20205;-83
2023/05/21 09:24:08;;;;;;;2.80;1.50;;;22.40;71.30;;;;;;4995300;28;20186;-83
2023/05/21 09:26:34;;;;;;;3.00;1.33;;;22.40;71.10;;;;;;4993490;28;20273;-83
2023/05/21 09:29:00;;;;;;;1.40;1.30;;;22.50;72.10;;;;;;5010155;28;20272;-84
2023/05/21 09:31:26;;;;;;;2.17;1.38;;;22.60;71.90;;;;;;4994353;28;20594;-83
2023/05/21 09:33:52;;;;;;;3.85;1.27;;;22.60;70.90;;;;;;5009612;28;20182;-83
2023/05/21 09:36:19;;;;;;;2.03;1.83;;;22.60;73.70;;;;;;5009590;28;20189;-84
2023/05/21 09:38:46;;;;;;;5.60;1.70;;;22.50;72.20;;;;;;5025864;28;20281;-82
2023/05/21 09:41:12;;;;;;;1.58;1.40;;;22.60;73.50;;;;;;4993098;28;20186;-83
2023/05/21 09:43:42;;;;;;;2.30;1.55;;;22.60;74.70;;;;;;4992916;28;20328;-82
2023/05/21 09:46:08;;;;;;;2.10;1.63;;;22.50;76.00;;;;;;4994810;28;20178;-82
2023/05/21 09:48:42;;;;;;;2.53;1.58;;;22.40;68.20;;;;;;5010546;28;20340;-82
2023/05/21 09:51:17;;;;;;;2.22;1.30;;;22.50;72.70;;;;;;4995133;28;20204;-83
2023/05/21 09:54:02;;;;;;;3.63;1.30;;;22.60;69.30;;;;;;4995107;28;20166;-83
2023/05/21 09:56:30;;;;;;;2.63;1.50;;;22.70;66.30;;;;;;4994940;28;20170;-83
2023/05/21 09:59:03;;;;;;;1.63;1.35;;;22.70;69.40;;;;;;4995041;28;20248;-84
2023/05/21 10:01:32;;;;;;;2.50;1.33;;;22.90;66.10;;;;;;4993319;28;20186;-81
2023/05/21 10:04:00;;;;;;;3.47;1.38;;;22.90;65.20;;;;;;5026343;28;20659;-82
2023/05/21 10:06:29;;;;;;;3.17;1.20;;;22.90;65.60;;;;;;5026663;28;20186;-81
2023/05/21 10:08:56;;;;;;;1.92;1.20;;;23.00;61.20;;;;;;4994950;28;20182;-82
2023/05/21 10:11:25;;;;;;;4.90;2.05;;;23.00;60.80;;;;;;4993109;28;20693;-81
2023/05/21 10:14:06;;;;;;;1.77;1.23;;;23.00;62.20;;;;;;4995523;28;20220;-80
2023/05/21 10:16:33;;;;;;;7.25;1.70;;;23.10;60.60;;;;;;4995326;28;20164;-81
2023/05/21 10:18:59;;;;;;;2.28;1.38;;;23.20;61.00;;;;;;4994975;28;20658;-82
2023/05/21 10:21:26;;;;;;;1.50;1.08;;;23.20;63.60;;;;;;4996176;28;20646;-79
2023/05/21 10:23:55;;;;;;;1.63;1.33;;;23.20;64.90;;;;;;5006226;28;20264;-81
2023/05/21 10:26:22;;;;;;;7.10;1.50;;;23.00;61.50;;;;;;5006062;28;20170;-82
2023/05/21 10:28:51;;;;;;;2.05;1.20;;;23.10;63.50;;;;;;5031275;28;20186;-81
2023/05/21 10:31:17;;;;;;;2.70;1.33;;;;;;;;;;4994999;28;20205;-82
2023/05/21 10:33:43;;;;;;;1.70;1.30;;;23.30;59.50;;;;;;4994816;28;20178;-81
2023/05/21 10:36:10;;;;;;;1.50;1.20;;;23.40;61.00;;;;;;4993146;28;20580;-79
2023/05/21 10:38:37;;;;;;;2.60;1.00;;;23.40;57.70;;;;;;4994428;28;20201;-80
2023/05/21 10:41:05;;;;;;;1.75;1.25;;;23.30;60.10;;;;;;4994504;28;20174;-81
2023/05/21 10:44:15;;;;;;;1.23;1.00;;;23.20;59.20;;;;;;5009307;28;20185;-79
2023/05/21 10:47:06;;;;;;;2.10;1.27;;;23.10;60.50;;;;;;4994569;28;20170;-79
2023/05/21 10:50:05;;;;;;;2.70;1.52;;;23.30;61.40;;;;;;4993724;28;20180;-79
2023/05/21 10:52:43;;;;;;;3.92;1.23;;;23.40;57.70;;;;;;4991933;28;20297;-79
2023/05/21 10:55:25;;;;;;;3.75;1.65;;;23.20;59.20;;;;;;5025431;28;20174;-80
2023/05/21 10:58:26;;;;;;;2.92;1.30;;;23.20;58.40;;;;;;5025646;28;20562;-79
2023/05/21 11:00:54;;;;;;;3.05;1.50;;;23.30;58.60;;;;;;4994174;28;20256;-79
2023/05/21 11:03:21;;;;;;;1.48;1.17;;;23.40;59.60;;;;;;5025034;28;20635;-79
2023/05/21 11:05:56;;;;;;;3.22;1.67;;;23.20;61.10;;;;;;4994233;28;20181;-79
2023/05/21 11:08:29;;;;;;;2.13;1.52;;;23.30;58.70;;;;;;4992712;28;20196;-79
2023/05/21 11:10:58;;;;;;;1.88;1.10;;;23.40;58.10;;;;;;4993698;28;20216;-79
2023/05/21 11:13:25;;;;;;;1.88;0.90;;;23.50;59.60;;;;;;4994059;28;20173;-79
2023/05/21 11:15:56;;;;;;;2.17;1.02;;;23.70;58.00;;;;;;4997146;28;20184;-78
2023/05/21 11:18:22;;;;;;;1.35;1.00;;;23.50;56.60;;;;;;4997758;28;20173;-79
2023/05/21 11:20:51;;;;;;;2.45;1.10;;;23.60;55.90;;;;;;4997513;28;20178;-80
2023/05/21 11:23:19;;;;;;;2.25;0.90;;;23.50;53.60;;;;;;4997861;28;20188;-80
2023/05/21 11:26:00;;;;;;;2.08;0.90;;;23.60;54.00;;;;;;4997875;28;20181;-81
2023/05/21 11:28:33;;;;;;;1.52;1.05;;;23.70;54.10;;;;;;4997362;28;20269;-81
2023/05/21 11:31:24;;;;;;;4.70;1.40;;;23.80;54.20;;;;;;4997984;28;20202;-81
2023/05/21 11:34:27;;;;;;;1.83;1.15;;;23.70;55.30;;;;;;5029231;28;20249;-81
2023/05/21 11:37:30;;;;;;;2.17;1.33;;;23.80;56.20;;;;;;4997797;28;20162;-80
2023/05/21 11:40:14;;;;;;;1.30;1.15;;;23.90;57.50;;;;;;4997724;28;20242;-80
2023/05/21 11:42:42;;;;;;;1.70;1.10;;;23.90;55.90;;;;;;4997820;28;20165;-80
2023/05/21 11:45:08;;;;;;;3.63;0.95;;;23.80;55.90;;;;;;4997765;28;20677;-79
2023/05/21 11:47:34;;;;;;;2.55;1.23;;;24.00;57.70;;;;;;4997007;28;20236;-84
2023/05/21 11:50:01;;;;;;;1.55;1.05;;;23.90;56.30;;;;;;5029172;28;20643;-81
2023/05/21 11:52:31;;;;;;;1.17;1.08;;;23.90;58.20;;;;;;5012631;28;20252;-81
2023/05/21 11:54:58;;;;;;;8.18;1.95;;;23.90;57.50;;;;;;4996226;28;20174;-81
2023/05/21 11:57:29;;;;;;;2.22;1.52;;;23.70;56.80;;;;;;4996516;28;20525;-78
2023/05/21 11:59:57;;;;;;;1.33;1.08;;;23.70;54.90;;;;;;4997528;28;20177;-80
2023/05/21 12:02:26;;;;;;;1.48;1.27;;;23.70;55.20;;;;;;4997392;28;20165;-81
2023/05/21 12:04:51;;;;;;;1.42;1.20;;;23.60;55.20;;;;;;5028635;28;20588;-81
2023/05/21 12:07:19;;;;;;;1.02;0.90;;;23.50;56.10;;;;;;5029250;28;20177;-79
2023/05/21 12:09:46;;;;;;;1.23;0.90;;;23.70;55.90;;;;;;4996814;28;20170;-80
2023/05/21 12:12:17;;;;;;;3.17;1.50;;;23.80;55.20;;;;;;4997652;28;20186;-80
2023/05/21 12:14:51;;;;;;;1.25;0.90;;;23.70;53.00;;;;;;5029004;28;20166;-80
2023/05/21 12:17:19;;;;;;;1.38;0.98;;;23.70;55.00;;;;;;4996906;28;20502;-80
2023/05/21 12:19:46;;;;;;;1.58;1.30;;;23.60;55.70;;;;;;4997486;28;20311;-78
2023/05/21 12:22:14;;;;;;;1.85;1.38;;;23.80;55.60;;;;;;5029299;28;20574;-81
2023/05/21 12:24:40;;;;;;;2.08;1.08;;;23.90;53.10;;;;;;4995712;28;20638;-81
2023/05/21 12:27:08;;;;;;;1.35;1.00;;;23.90;52.10;;;;;;4997416;28;20178;-81
2023/05/21 12:29:37;;;;;;;1.55;1.20;;;23.80;53.60;;;;;;4997166;28;20170;-80
2023/05/21 12:32:07;;;;;;;1.60;1.20;;;23.90;53.90;;;;;;4996539;28;20681;-80
2023/05/21 12:34:50;;;;;;;2.03;1.33;;;24.00;55.60;;;;;;4996908;28;20630;-80
2023/05/21 12:37:31;;;;;;;3.35;1.63;;;23.90;55.00;;;;;;4996920;28;20217;-81
2023/05/21 12:40:03;;;;;;;2.22;1.55;;;24.20;55.30;;;;;;4997543;28;20162;-80
2023/05/21 12:42:35;;;;;;;1.15;0.93;;;24.20;53.80;;;;;;4997060;28;20174;-80
2023/05/21 12:45:08;;;;;;;1.77;1.23;;;24.10;52.20;;;;;;4996954;28;20230;-80
2023/05/21 12:47:34;;;;;;;1.42;1.23;;;24.10;53.90;;;;;;4997348;28;20619;-79
2023/05/21 12:50:00;;;;;;;2.15;1.40;;;24.10;53.20;;;;;;4996629;28;20202;-80
2023/05/21 12:52:27;;;;;;;1.42;1.30;;;24.00;52.20;;;;;;5028448;28;20252;-79
2023/05/21 12:54:57;;;;;;;2.15;1.50;;;23.90;52.50;;;;;;4995430;28;20188;-80